createdAt,value
2019-05-13T00:00:53.933Z,10.01
2019-05-13T00:01:53.821Z,10.07
2019-05-13T00:02:54.235Z,10.05
2019-05-13T00:03:54.093Z,9.97
2019-05-13T00:04:53.219Z,9.89
2019-05-13T00:05:53.619Z,9.92
2019-05-13T00:06:55.111Z,9.95
2019-05-13T00:07:54.043Z,9.77
2019-05-13T00:08:54.212Z,9.87
2019-05-13T00:09:54.238Z,10.04
2019-05-13T00:10:53.992Z,9.97
2019-05-13T00:11:53.870Z,9.98
2019-05-13T00:12:53.882Z,10.13
2019-05-13T00:13:53.699Z,10.09
2019-05-13T00:14:53.513Z,10.15
2019-05-13T00:15:51.680Z,10.07
2019-05-13T00:16:53.651Z,10.12
2019-05-13T00:17:51.667Z,10.02
2019-05-13T00:18:53.486Z,10.15
2019-05-13T00:19:53.202Z,10.05
2019-05-13T00:20:54.027Z,10.07
2019-05-13T00:21:51.620Z,10.07
2019-05-13T00:22:53.650Z,10.23
2019-05-13T00:23:53.472Z,10.22
2019-05-13T00:24:51.589Z,10.22
2019-05-13T00:25:51.572Z,10.28
2019-05-13T00:26:53.190Z,10.15
2019-05-13T00:27:53.604Z,10.20
2019-05-13T00:28:53.437Z,10.16
2019-05-13T00:29:53.434Z,10.12
2019-05-13T00:30:51.517Z,10.05
2019-05-13T00:31:53.871Z,10.16
2019-05-13T00:32:51.498Z,10.12
2019-05-13T00:33:53.247Z,10.07
2019-05-13T00:34:53.388Z,9.92
2019-05-13T00:35:53.461Z,9.94
2019-05-13T00:37:07.365Z,9.99
2019-05-13T00:37:54.274Z,9.89
2019-05-13T00:38:53.489Z,10.01
2019-05-13T00:39:51.420Z,9.92
2019-05-13T00:40:51.415Z,9.95
2019-05-13T00:41:53.175Z,10.04
2019-05-13T00:42:51.390Z,10.02
2019-05-13T00:43:53.250Z,9.98
2019-05-13T00:44:53.217Z,9.92
2019-05-13T00:45:53.393Z,9.91
2019-05-13T00:46:53.568Z,9.87
2019-05-13T00:47:53.581Z,9.89
2019-05-13T00:48:51.319Z,9.87
2019-05-13T00:49:51.315Z,9.86
2019-05-13T00:50:51.317Z,9.74
2019-05-13T00:51:53.342Z,9.79
2019-05-13T00:52:53.545Z,9.80
2019-05-13T00:53:53.520Z,9.66
2019-05-13T00:54:53.022Z,9.62
2019-05-13T00:55:53.422Z,9.65
2019-05-13T00:56:51.240Z,9.62
2019-05-13T00:57:53.948Z,9.65
2019-05-13T00:58:51.232Z,9.64
2019-05-13T00:59:51.209Z,9.59
2019-05-13T01:00:51.228Z,9.48
2019-05-13T01:01:53.344Z,9.40
2019-05-13T01:02:53.251Z,9.44
2019-05-13T01:03:53.196Z,9.31
2019-05-13T01:04:53.427Z,9.32
2019-05-13T01:05:53.416Z,9.36
2019-05-13T01:06:51.125Z,9.32
2019-05-13T01:07:53.548Z,9.28
2019-05-13T01:08:53.493Z,9.31
2019-05-13T01:09:53.389Z,9.34
2019-05-13T01:10:53.525Z,9.34
2019-05-13T01:11:51.079Z,9.32
2019-05-13T01:12:51.055Z,9.39
2019-05-13T01:13:53.433Z,9.40
2019-05-13T01:14:53.320Z,9.34
2019-05-13T01:15:51.029Z,9.36
2019-05-13T01:16:51.038Z,9.32
2019-05-13T01:17:53.378Z,9.29
2019-05-13T01:18:50.987Z,9.39
2019-05-13T01:19:50.981Z,9.39
2019-05-13T01:20:50.977Z,9.37
2019-05-13T01:21:50.996Z,9.40
2019-05-13T01:22:50.956Z,9.21
2019-05-13T01:23:50.945Z,9.19
2019-05-13T01:24:50.929Z,9.14
2019-05-13T01:25:50.933Z,9.19
2019-05-13T01:26:50.901Z,9.23
2019-05-13T01:27:50.903Z,9.22
2019-05-13T01:28:50.891Z,9.29
2019-05-13T01:29:50.869Z,9.28
2019-05-13T01:30:50.855Z,9.19
2019-05-13T01:31:50.857Z,9.19
2019-05-13T01:32:50.837Z,9.22
2019-05-13T01:33:50.827Z,9.18
2019-05-13T01:34:50.809Z,9.22
2019-05-13T01:35:50.793Z,9.21
2019-05-13T01:36:50.788Z,9.16
2019-05-13T01:37:50.771Z,9.25
2019-05-13T01:38:50.769Z,9.22
2019-05-13T01:39:50.757Z,9.19
2019-05-13T01:40:50.743Z,9.18
2019-05-13T01:41:50.734Z,9.22
2019-05-13T01:42:50.718Z,9.19
2019-05-13T01:43:50.705Z,9.16
2019-05-13T01:44:50.693Z,9.21
2019-05-13T01:45:50.743Z,9.18
2019-05-13T01:46:50.725Z,9.13
2019-05-13T01:47:50.743Z,9.13
2019-05-13T01:48:50.653Z,9.18
2019-05-13T01:49:50.637Z,9.14
2019-05-13T01:50:50.636Z,9.22
2019-05-13T01:51:50.625Z,9.16
2019-05-13T01:52:50.603Z,9.16
2019-05-13T01:53:50.602Z,9.16
2019-05-13T01:54:50.584Z,9.08
2019-05-13T01:55:50.583Z,9.03
2019-05-13T01:56:50.585Z,9.10
2019-05-13T01:57:50.555Z,9.02
2019-05-13T01:58:50.541Z,9.16
2019-05-13T01:59:50.532Z,9.00
2019-05-13T02:00:51.767Z,9.00
2019-05-13T02:01:50.523Z,8.92
2019-05-13T02:02:50.509Z,8.97
2019-05-13T02:03:50.497Z,8.97
2019-05-13T02:04:50.496Z,8.99
2019-05-13T02:05:50.478Z,8.99
2019-05-13T02:06:50.460Z,9.00
2019-05-13T02:07:59.686Z,8.99
2019-05-13T02:08:51.430Z,8.99
2019-05-13T02:09:50.421Z,9.00
2019-05-13T02:10:50.419Z,8.92
2019-05-13T02:11:50.409Z,8.97
2019-05-13T02:12:50.402Z,8.95
2019-05-13T02:13:50.392Z,8.97
2019-05-13T02:14:50.394Z,8.92
2019-05-13T02:15:50.429Z,8.97
2019-05-13T02:16:50.361Z,8.95
2019-05-13T02:17:50.341Z,8.88
2019-05-13T02:18:50.332Z,8.88
2019-05-13T02:19:50.328Z,8.91
2019-05-13T02:20:50.308Z,8.89
2019-05-13T02:21:50.292Z,8.88
2019-05-13T02:22:50.283Z,8.76
2019-05-13T02:23:50.276Z,8.76
2019-05-13T02:24:50.268Z,8.79
2019-05-13T02:25:50.248Z,8.84
2019-05-13T02:26:50.240Z,8.78
2019-05-13T02:27:50.236Z,8.74
2019-05-13T02:28:50.224Z,8.71
2019-05-13T02:29:50.219Z,8.69
2019-05-13T02:30:50.208Z,8.71
2019-05-13T02:31:55.191Z,8.69
2019-05-13T02:32:53.071Z,8.70
2019-05-13T02:33:52.934Z,8.78
2019-05-13T02:34:53.071Z,8.69
2019-05-13T02:35:52.950Z,8.74
2019-05-13T02:36:52.713Z,8.78
2019-05-13T02:37:52.491Z,8.70
2019-05-13T02:38:52.957Z,8.76
2019-05-13T02:39:52.944Z,8.69
2019-05-13T02:40:52.628Z,8.70
2019-05-13T02:41:52.627Z,8.71
2019-05-13T02:42:52.320Z,8.74
2019-05-13T02:43:52.600Z,8.76
2019-05-13T02:44:52.933Z,8.69
2019-05-13T02:45:53.147Z,8.61
2019-05-13T02:46:52.427Z,8.69
2019-05-13T02:47:52.127Z,8.58
2019-05-13T02:48:52.824Z,8.63
2019-05-13T02:49:53.056Z,8.63
2019-05-13T02:50:52.884Z,8.66
2019-05-13T02:51:49.971Z,8.61
2019-05-13T02:52:52.940Z,8.61
2019-05-13T02:53:52.417Z,8.58
2019-05-13T02:54:52.751Z,8.60
2019-05-13T02:55:52.287Z,8.61
2019-05-13T02:56:52.560Z,8.61
2019-05-13T02:57:52.684Z,8.53
2019-05-13T02:58:52.643Z,8.58
2019-05-13T02:59:52.645Z,8.58
2019-05-13T03:00:53.340Z,8.66
2019-05-13T03:01:53.372Z,8.58
2019-05-13T03:02:52.399Z,8.58
2019-05-13T03:03:52.817Z,8.48
2019-05-13T03:04:52.321Z,8.46
2019-05-13T03:05:52.736Z,8.38
2019-05-13T03:06:52.129Z,8.38
2019-05-13T03:07:52.981Z,8.36
2019-05-13T03:08:53.990Z,8.41
2019-05-13T03:09:52.726Z,8.37
2019-05-13T03:10:52.716Z,8.37
2019-05-13T03:11:53.242Z,8.41
2019-05-13T03:12:53.156Z,8.45
2019-05-13T03:13:52.631Z,8.38
2019-05-13T03:14:53.059Z,8.46
2019-05-13T03:15:52.217Z,8.41
2019-05-13T03:16:52.555Z,8.34
2019-05-13T03:17:52.434Z,8.37
2019-05-13T03:18:52.321Z,8.33
2019-05-13T03:19:53.104Z,8.27
2019-05-13T03:20:52.655Z,8.33
2019-05-13T03:21:52.461Z,8.23
2019-05-13T03:22:52.498Z,8.28
2019-05-13T03:23:52.595Z,8.28
2019-05-13T03:24:52.302Z,8.20
2019-05-13T03:25:49.602Z,8.27
2019-05-13T03:26:52.946Z,8.27
2019-05-13T03:27:49.582Z,8.23
2019-05-13T03:28:52.392Z,8.33
2019-05-13T03:29:49.569Z,8.33
2019-05-13T03:30:50.926Z,8.26
2019-05-13T03:31:54.927Z,8.23
2019-05-13T03:32:55.200Z,8.26
2019-05-13T03:33:55.552Z,8.31
2019-05-13T03:34:56.263Z,8.31
2019-05-13T03:35:55.974Z,8.31
2019-05-13T03:36:56.381Z,8.33
2019-05-13T03:37:52.788Z,8.30
2019-05-13T03:39:01.609Z,8.24
2019-05-13T03:39:52.327Z,8.18
2019-05-13T03:40:52.445Z,8.16
2019-05-13T03:41:52.588Z,8.15
2019-05-13T03:42:53.016Z,8.30
2019-05-13T03:43:49.401Z,8.30
2019-05-13T03:44:52.324Z,8.31
2019-05-13T03:45:52.419Z,8.23
2019-05-13T03:46:52.660Z,8.31
2019-05-13T03:47:52.547Z,8.28
2019-05-13T03:48:49.345Z,8.26
2019-05-13T03:49:49.341Z,8.26
2019-05-13T03:50:49.325Z,8.27
2019-05-13T03:51:49.309Z,8.19
2019-05-13T03:52:52.240Z,8.15
2019-05-13T03:53:49.293Z,8.26
2019-05-13T03:54:52.013Z,8.30
2019-05-13T03:55:49.276Z,8.19
2019-05-13T03:56:52.786Z,8.23
2019-05-13T03:57:49.248Z,8.20
2019-05-13T03:58:49.241Z,8.26
2019-05-13T03:59:52.415Z,8.23
2019-05-13T04:00:51.810Z,8.16
2019-05-13T04:01:52.385Z,8.01
2019-05-13T04:02:51.936Z,8.20
2019-05-13T04:03:52.532Z,8.20
2019-05-13T04:04:49.167Z,8.16
2019-05-13T04:05:52.341Z,8.16
2019-05-13T04:06:49.159Z,8.20
2019-05-13T04:07:52.047Z,8.28
2019-05-13T04:08:49.122Z,8.28
2019-05-13T04:09:52.340Z,8.18
2019-05-13T04:10:52.278Z,8.20
2019-05-13T04:11:52.357Z,8.12
2019-05-13T04:12:52.395Z,8.13
2019-05-13T04:13:52.426Z,8.15
2019-05-13T04:14:49.074Z,8.13
2019-05-13T04:15:49.049Z,8.20
2019-05-13T04:16:49.063Z,8.15
2019-05-13T04:17:49.032Z,8.16
2019-05-13T04:18:49.020Z,8.18
2019-05-13T04:19:49.006Z,8.12
2019-05-13T04:20:48.990Z,8.13
2019-05-13T04:21:48.981Z,8.15
2019-05-13T04:22:48.985Z,8.15
2019-05-13T04:23:48.965Z,8.15
2019-05-13T04:24:48.956Z,8.13
2019-05-13T04:25:48.941Z,8.05
2019-05-13T04:26:48.931Z,8.08
2019-05-13T04:27:52.226Z,8.12
2019-05-13T04:28:52.409Z,8.06
2019-05-13T04:29:52.507Z,8.06
2019-05-13T04:30:48.881Z,8.15
2019-05-13T04:31:48.887Z,8.03
2019-05-13T04:32:48.879Z,8.13
2019-05-13T04:33:48.871Z,8.06
2019-05-13T04:34:48.845Z,7.97
2019-05-13T04:35:48.875Z,8.08
2019-05-13T04:36:51.888Z,8.12
2019-05-13T04:37:52.194Z,8.06
2019-05-13T04:38:48.807Z,8.06
2019-05-13T04:39:52.639Z,8.08
2019-05-13T04:40:52.638Z,8.12
2019-05-13T04:41:48.781Z,8.13
2019-05-13T04:42:48.754Z,8.13
2019-05-13T04:43:48.774Z,8.09
2019-05-13T04:44:48.732Z,8.10
2019-05-13T04:45:52.212Z,8.12
2019-05-13T04:46:48.715Z,8.08
2019-05-13T04:47:48.703Z,8.03
2019-05-13T04:48:48.703Z,8.16
2019-05-13T04:49:48.677Z,8.19
2019-05-13T04:50:48.678Z,8.20
2019-05-13T04:51:52.123Z,8.19
2019-05-13T04:52:48.657Z,8.16
2019-05-13T04:53:53.345Z,8.28
2019-05-13T04:54:52.792Z,8.27
2019-05-13T04:55:48.613Z,8.26
2019-05-13T04:56:48.629Z,8.26
2019-05-13T04:57:48.616Z,8.38
2019-05-13T04:58:48.596Z,8.28
2019-05-13T04:59:48.595Z,8.34
2019-05-13T05:00:50.021Z,8.30
2019-05-13T05:01:57.837Z,8.28
2019-05-13T05:02:54.675Z,8.33
2019-05-13T05:03:52.765Z,8.44
2019-05-13T05:04:48.515Z,8.45
2019-05-13T05:05:48.504Z,8.42
2019-05-13T05:06:48.494Z,8.42
2019-05-13T05:07:48.480Z,8.48
2019-05-13T05:08:48.475Z,8.49
2019-05-13T05:10:13.271Z,8.53
2019-05-13T05:10:51.102Z,8.49
2019-05-13T05:11:48.442Z,8.49
2019-05-13T05:12:48.431Z,8.55
2019-05-13T05:13:48.420Z,8.61
2019-05-13T05:14:48.415Z,8.64
2019-05-13T05:15:48.440Z,8.67
2019-05-13T05:16:48.390Z,8.73
2019-05-13T05:17:48.440Z,8.87
2019-05-13T05:18:48.360Z,8.85
2019-05-13T05:19:48.351Z,8.79
2019-05-13T05:20:48.351Z,8.81
2019-05-13T05:21:51.721Z,8.82
2019-05-13T05:22:48.319Z,8.84
2019-05-13T05:23:48.305Z,8.84
2019-05-13T05:24:48.304Z,8.71
2019-05-13T05:25:48.292Z,8.74
2019-05-13T05:26:48.279Z,8.76
2019-05-13T05:27:48.304Z,8.84
2019-05-13T05:28:48.252Z,8.81
2019-05-13T05:29:48.240Z,8.82
2019-05-13T05:30:48.234Z,8.76
2019-05-13T05:31:48.240Z,8.78
2019-05-13T05:32:48.390Z,8.71
2019-05-13T05:33:48.200Z,8.67
2019-05-13T05:34:48.188Z,8.81
2019-05-13T05:35:48.182Z,8.95
2019-05-13T05:36:48.169Z,9.00
2019-05-13T05:37:48.161Z,9.13
2019-05-13T05:38:48.145Z,9.16
2019-05-13T05:39:48.143Z,9.18
2019-05-13T05:40:48.121Z,9.25
2019-05-13T05:41:48.492Z,9.23
2019-05-13T05:42:48.106Z,9.31
2019-05-13T05:43:48.099Z,9.31
2019-05-13T05:44:48.100Z,9.39
2019-05-13T05:45:48.068Z,9.32
2019-05-13T05:46:48.053Z,9.34
2019-05-13T05:47:48.043Z,9.40
2019-05-13T05:48:50.043Z,9.43
2019-05-13T05:49:48.034Z,9.34
2019-05-13T05:50:48.015Z,9.32
2019-05-13T05:51:48.006Z,9.19
2019-05-13T05:52:47.988Z,9.31
2019-05-13T05:53:47.981Z,9.25
2019-05-13T05:54:47.966Z,9.40
2019-05-13T05:55:47.992Z,9.29
2019-05-13T05:56:47.949Z,9.36
2019-05-13T05:57:47.931Z,9.39
2019-05-13T05:58:47.924Z,9.39
2019-05-13T05:59:47.907Z,9.48
2019-05-13T06:00:47.910Z,9.48
2019-05-13T06:01:47.883Z,9.54
2019-05-13T06:02:47.894Z,9.48
2019-05-13T06:03:47.862Z,9.59
2019-05-13T06:04:47.857Z,9.66
2019-05-13T06:05:47.846Z,9.61
2019-05-13T06:06:47.840Z,9.68
2019-05-13T06:07:47.816Z,9.73
2019-05-13T06:08:47.809Z,9.77
2019-05-13T06:09:47.806Z,9.74
2019-05-13T06:10:50.440Z,9.76
2019-05-13T06:11:48.780Z,9.69
2019-05-13T06:12:47.834Z,9.62
2019-05-13T06:13:47.794Z,9.59
2019-05-13T06:14:47.746Z,9.62
2019-05-13T06:15:47.777Z,9.69
2019-05-13T06:16:47.735Z,9.69
2019-05-13T06:17:47.718Z,9.74
2019-05-13T06:18:47.693Z,9.76
2019-05-13T06:19:47.692Z,9.73
2019-05-13T06:20:47.715Z,9.87
2019-05-13T06:21:47.663Z,9.89
2019-05-13T06:22:47.659Z,9.89
2019-05-13T06:23:47.668Z,9.91
2019-05-13T06:24:47.648Z,9.95
2019-05-13T06:25:47.621Z,9.95
2019-05-13T06:26:47.608Z,9.87
2019-05-13T06:27:47.593Z,9.89
2019-05-13T06:28:47.599Z,10.05
2019-05-13T06:29:49.349Z,9.94
2019-05-13T06:30:47.569Z,9.99
2019-05-13T06:31:47.557Z,9.97
2019-05-13T06:32:47.535Z,9.92
2019-05-13T06:33:47.529Z,10.01
2019-05-13T06:34:47.525Z,10.02
2019-05-13T06:35:47.519Z,9.95
2019-05-13T06:36:47.499Z,10.12
2019-05-13T06:37:47.485Z,10.13
2019-05-13T06:38:47.473Z,10.23
2019-05-13T06:39:47.470Z,10.34
2019-05-13T06:40:59.274Z,10.34
2019-05-13T06:41:48.441Z,10.40
2019-05-13T06:42:47.440Z,10.51
2019-05-13T06:43:47.415Z,10.78
2019-05-13T06:44:47.410Z,11.35
2019-05-13T06:45:47.399Z,11.54
2019-05-13T06:46:47.390Z,11.59
2019-05-13T06:47:47.396Z,11.57
2019-05-13T06:48:47.370Z,11.63
2019-05-13T06:49:47.352Z,11.59
2019-05-13T06:50:47.353Z,11.50
2019-05-13T06:51:47.402Z,11.48
2019-05-13T06:52:47.384Z,11.43
2019-05-13T06:53:47.311Z,11.47
2019-05-13T06:54:47.297Z,11.50
2019-05-13T06:55:47.281Z,11.54
2019-05-13T06:56:47.274Z,11.55
2019-05-13T06:57:47.434Z,11.66
2019-05-13T06:58:47.280Z,11.69
2019-05-13T06:59:47.251Z,11.66
2019-05-13T07:00:47.237Z,11.69
2019-05-13T07:01:47.219Z,11.70
2019-05-13T07:02:47.221Z,11.73
2019-05-13T07:03:47.193Z,11.86
2019-05-13T07:04:47.191Z,12.02
2019-05-13T07:05:47.197Z,12.04
2019-05-13T07:06:47.166Z,12.10
2019-05-13T07:07:47.169Z,12.00
2019-05-13T07:08:47.151Z,11.90
2019-05-13T07:09:52.225Z,11.87
2019-05-13T07:10:47.133Z,11.94
2019-05-13T07:11:47.247Z,11.88
2019-05-13T07:12:47.094Z,11.88
2019-05-13T07:13:47.113Z,11.99
2019-05-13T07:14:47.102Z,12.12
2019-05-13T07:15:47.070Z,12.12
2019-05-13T07:16:47.055Z,12.15
2019-05-13T07:17:47.047Z,12.25
2019-05-13T07:18:47.033Z,12.28
2019-05-13T07:19:47.023Z,12.28
2019-05-13T07:20:47.010Z,12.28
2019-05-13T07:21:47.010Z,12.25
2019-05-13T07:22:47.003Z,12.25
2019-05-13T07:23:46.975Z,12.40
2019-05-13T07:24:46.980Z,12.43
2019-05-13T07:25:46.966Z,12.54
2019-05-13T07:26:46.942Z,12.58
2019-05-13T07:27:46.936Z,12.50
2019-05-13T07:28:46.915Z,12.46
2019-05-13T07:29:46.911Z,12.37
2019-05-13T07:30:46.900Z,12.37
2019-05-13T07:31:46.888Z,12.24
2019-05-13T07:32:46.874Z,12.28
2019-05-13T07:33:46.885Z,12.18
2019-05-13T07:34:46.865Z,12.20
2019-05-13T07:35:46.867Z,12.12
2019-05-13T07:36:46.841Z,12.21
2019-05-13T07:37:46.817Z,12.22
2019-05-13T07:38:46.816Z,12.29
2019-05-13T07:39:46.810Z,12.36
2019-05-13T07:40:46.799Z,12.35
2019-05-13T07:41:46.792Z,12.35
2019-05-13T07:42:46.777Z,12.37
2019-05-13T07:43:46.764Z,12.22
2019-05-13T07:44:46.755Z,12.20
2019-05-13T07:45:46.746Z,12.27
2019-05-13T07:46:46.728Z,12.40
2019-05-13T07:47:46.716Z,12.53
2019-05-13T07:48:46.722Z,12.49
2019-05-13T07:49:46.724Z,12.65
2019-05-13T07:50:59.028Z,12.67
2019-05-13T07:51:47.674Z,12.75
2019-05-13T07:52:46.652Z,12.78
2019-05-13T07:53:46.661Z,12.82
2019-05-13T07:54:46.664Z,12.87
2019-05-13T07:55:46.629Z,12.87
2019-05-13T07:56:46.621Z,12.85
2019-05-13T07:57:46.600Z,12.97
2019-05-13T07:58:46.595Z,12.98
2019-05-13T07:59:46.609Z,13.01
2019-05-13T08:00:46.569Z,13.03
2019-05-13T08:01:46.570Z,13.12
2019-05-13T08:02:46.544Z,13.22
2019-05-13T08:03:46.534Z,13.22
2019-05-13T08:04:49.399Z,13.19
2019-05-13T08:05:46.525Z,13.16
2019-05-13T08:06:46.502Z,13.05
2019-05-13T08:07:46.508Z,13.01
2019-05-13T08:08:46.504Z,13.09
2019-05-13T08:09:46.472Z,13.00
2019-05-13T08:10:46.468Z,13.11
2019-05-13T08:12:02.233Z,13.04
2019-05-13T08:12:47.448Z,13.23
2019-05-13T08:13:46.427Z,13.30
2019-05-13T08:14:46.422Z,13.31
2019-05-13T08:15:46.408Z,13.54
2019-05-13T08:16:46.407Z,13.65
2019-05-13T08:17:47.658Z,13.83
2019-05-13T08:18:46.382Z,13.72
2019-05-13T08:19:46.364Z,13.70
2019-05-13T08:20:46.358Z,13.60
2019-05-13T08:21:46.359Z,13.53
2019-05-13T08:22:46.366Z,13.62
2019-05-13T08:23:46.312Z,13.57
2019-05-13T08:24:46.341Z,13.46
2019-05-13T08:25:46.294Z,13.46
2019-05-13T08:26:49.915Z,13.50
2019-05-13T08:27:47.270Z,13.53
2019-05-13T08:29:00.041Z,13.63
2019-05-13T08:29:47.262Z,13.62
2019-05-13T08:30:46.246Z,13.59
2019-05-13T08:31:46.240Z,13.65
2019-05-13T08:32:46.225Z,13.63
2019-05-13T08:33:46.213Z,13.65
2019-05-13T08:34:46.208Z,13.49
2019-05-13T08:35:47.069Z,13.38
2019-05-13T08:36:47.170Z,13.33
2019-05-13T08:37:46.172Z,13.39
2019-05-13T08:38:46.153Z,13.42
2019-05-13T08:39:46.147Z,13.37
2019-05-13T08:40:46.132Z,13.41
2019-05-13T08:41:46.118Z,13.35
2019-05-13T08:42:46.131Z,13.25
2019-05-13T08:43:46.090Z,13.18
2019-05-13T08:44:46.092Z,13.18
2019-05-13T08:45:46.081Z,13.12
2019-05-13T08:46:46.070Z,13.03
2019-05-13T08:47:46.055Z,13.12
2019-05-13T08:48:46.038Z,13.15
2019-05-13T08:49:46.034Z,13.11
2019-05-13T08:50:46.023Z,13.27
2019-05-13T08:51:46.003Z,13.38
2019-05-13T08:52:46.006Z,13.41
2019-05-13T08:53:45.994Z,13.54
2019-05-13T08:54:45.988Z,13.57
2019-05-13T08:55:45.971Z,13.53
2019-05-13T08:56:45.964Z,13.42
2019-05-13T08:57:45.945Z,13.42
2019-05-13T08:58:45.934Z,13.44
2019-05-13T08:59:45.914Z,13.38
2019-05-13T09:00:45.909Z,13.54
2019-05-13T09:01:45.924Z,13.52
2019-05-13T09:02:45.892Z,13.54
2019-05-13T09:03:45.875Z,13.65
2019-05-13T09:04:45.861Z,13.54
2019-05-13T09:05:45.865Z,13.63
2019-05-13T09:06:45.853Z,13.67
2019-05-13T09:07:45.845Z,13.75
2019-05-13T09:08:45.836Z,13.93
2019-05-13T09:09:46.499Z,14.07
2019-05-13T09:10:45.788Z,14.15
2019-05-13T09:11:45.788Z,14.10
2019-05-13T09:12:45.786Z,14.05
2019-05-13T09:13:45.766Z,14.17
2019-05-13T09:14:45.756Z,14.22
2019-05-13T09:15:45.744Z,14.23
2019-05-13T09:16:45.730Z,14.36
2019-05-13T09:17:45.743Z,14.41
2019-05-13T09:18:45.730Z,14.35
2019-05-13T09:19:45.697Z,14.33
2019-05-13T09:20:45.690Z,14.30
2019-05-13T09:21:45.675Z,14.30
2019-05-13T09:22:45.671Z,14.20
2019-05-13T09:23:45.663Z,14.12
2019-05-13T09:24:45.647Z,14.12
2019-05-13T09:25:45.632Z,14.04
2019-05-13T09:26:45.659Z,13.87
2019-05-13T09:27:45.615Z,13.75
2019-05-13T09:28:45.613Z,13.74
2019-05-13T09:29:45.588Z,13.95
2019-05-13T09:30:45.570Z,13.87
2019-05-13T09:31:45.571Z,14.11
2019-05-13T09:32:45.546Z,14.28
2019-05-13T09:33:45.558Z,14.43
2019-05-13T09:34:45.540Z,14.59
2019-05-13T09:35:45.524Z,14.62
2019-05-13T09:36:45.513Z,14.63
2019-05-13T09:37:45.496Z,14.66
2019-05-13T09:38:45.491Z,14.60
2019-05-13T09:39:45.473Z,14.62
2019-05-13T09:40:45.467Z,14.53
2019-05-13T09:41:45.457Z,14.53
2019-05-13T09:42:51.514Z,14.48
2019-05-13T09:43:46.430Z,14.45
2019-05-13T09:44:45.427Z,14.36
2019-05-13T09:45:45.411Z,14.37
2019-05-13T09:46:45.431Z,14.35
2019-05-13T09:47:45.391Z,14.28
2019-05-13T09:48:45.378Z,14.23
2019-05-13T09:49:45.374Z,14.29
2019-05-13T09:50:45.358Z,14.17
2019-05-13T09:51:45.347Z,14.08
2019-05-13T09:52:45.365Z,14.18
2019-05-13T09:53:45.364Z,14.14
2019-05-13T09:54:45.395Z,14.07
2019-05-13T09:55:45.302Z,14.08
2019-05-13T09:56:45.288Z,14.12
2019-05-13T09:57:45.287Z,14.20
2019-05-13T09:58:45.262Z,14.20
2019-05-13T09:59:45.263Z,14.26
2019-05-13T10:00:45.250Z,14.28
2019-05-13T10:01:45.240Z,14.29
2019-05-13T10:02:45.270Z,14.32
2019-05-13T10:03:55.024Z,14.30
2019-05-13T10:04:46.210Z,14.32
2019-05-13T10:05:45.193Z,14.43
2019-05-13T10:06:45.311Z,14.53
2019-05-13T10:07:45.169Z,14.47
2019-05-13T10:08:45.154Z,14.53
2019-05-13T10:09:48.242Z,14.54
2019-05-13T10:10:45.138Z,14.50
2019-05-13T10:11:45.117Z,14.53
2019-05-13T10:12:45.113Z,14.50
2019-05-13T10:13:45.101Z,14.41
2019-05-13T10:14:45.090Z,14.36
2019-05-13T10:15:48.761Z,14.51
2019-05-13T10:16:45.085Z,14.48
2019-05-13T10:17:45.063Z,14.41
2019-05-13T10:18:45.053Z,14.41
2019-05-13T10:19:45.033Z,14.28
2019-05-13T10:20:45.045Z,14.25
2019-05-13T10:21:45.009Z,14.29
2019-05-13T10:22:44.995Z,14.43
2019-05-13T10:23:44.985Z,14.51
2019-05-13T10:24:44.987Z,14.58
2019-05-13T10:25:44.974Z,14.77
2019-05-13T10:26:44.953Z,14.99
2019-05-13T10:27:44.939Z,14.99
2019-05-13T10:28:44.937Z,15.04
2019-05-13T10:29:44.929Z,15.14
2019-05-13T10:30:44.914Z,15.27
2019-05-13T10:31:44.898Z,15.10
2019-05-13T10:32:44.885Z,15.24
2019-05-13T10:33:44.875Z,15.31
2019-05-13T10:34:44.927Z,15.14
2019-05-13T10:35:44.854Z,15.07
2019-05-13T10:36:44.854Z,15.07
2019-05-13T10:37:44.839Z,15.00
2019-05-13T10:38:44.827Z,14.97
2019-05-13T10:39:44.805Z,14.94
2019-05-13T10:40:44.799Z,15.04
2019-05-13T10:41:44.785Z,15.18
2019-05-13T10:42:44.786Z,15.47
2019-05-13T10:43:44.967Z,16.00
2019-05-13T10:44:44.758Z,16.33
2019-05-13T10:45:44.746Z,16.57
2019-05-13T10:46:44.733Z,16.53
2019-05-13T10:47:44.729Z,16.56
2019-05-13T10:48:44.712Z,16.76
2019-05-13T10:49:44.697Z,17.04
2019-05-13T10:50:44.710Z,17.31
2019-05-13T10:51:44.672Z,17.87
2019-05-13T10:52:44.667Z,18.52
2019-05-13T10:53:44.657Z,18.15
2019-05-13T10:54:44.655Z,17.59
2019-05-13T10:55:44.635Z,17.86
2019-05-13T10:56:44.628Z,17.46
2019-05-13T10:57:44.612Z,17.09
2019-05-13T10:58:44.604Z,16.74
2019-05-13T10:59:44.595Z,16.51
2019-05-13T11:00:44.577Z,16.41
2019-05-13T11:01:44.571Z,18.16
2019-05-13T11:02:44.561Z,19.19
2019-05-13T11:03:44.549Z,20.52
2019-05-13T11:04:44.551Z,21.55
2019-05-13T11:05:44.875Z,21.58
2019-05-13T11:06:44.535Z,20.40
2019-05-13T11:07:44.503Z,19.51
2019-05-13T11:08:44.484Z,18.93
2019-05-13T11:09:44.487Z,18.33
2019-05-13T11:10:44.477Z,17.89
2019-05-13T11:11:44.473Z,17.63
2019-05-13T11:12:44.442Z,17.27
2019-05-13T11:13:54.356Z,17.01
2019-05-13T11:14:46.782Z,18.40
2019-05-13T11:15:45.937Z,19.70
2019-05-13T11:16:44.405Z,20.62
2019-05-13T11:17:44.392Z,21.37
2019-05-13T11:18:44.385Z,22.33
2019-05-13T11:19:44.377Z,22.41
2019-05-13T11:20:44.372Z,22.62
2019-05-13T11:21:44.570Z,22.87
2019-05-13T11:22:44.348Z,23.62
2019-05-13T11:23:44.324Z,23.65
2019-05-13T11:24:44.318Z,23.32
2019-05-13T11:25:44.322Z,23.23
2019-05-13T11:26:44.286Z,21.98
2019-05-13T11:27:44.305Z,21.15
2019-05-13T11:28:44.277Z,20.36
2019-05-13T11:29:44.263Z,19.81
2019-05-13T11:30:44.266Z,19.37
2019-05-13T11:31:44.240Z,18.95
2019-05-13T11:32:44.228Z,18.44
2019-05-13T11:33:44.229Z,18.28
2019-05-13T11:34:44.226Z,17.97
2019-05-13T11:35:44.198Z,18.59
2019-05-13T11:36:44.196Z,18.34
2019-05-13T11:37:44.208Z,17.95
2019-05-13T11:38:44.169Z,17.80
2019-05-13T11:39:44.185Z,17.63
2019-05-13T11:40:44.141Z,17.87
2019-05-13T11:41:44.129Z,18.98
2019-05-13T11:42:44.127Z,19.73
2019-05-13T11:43:44.148Z,20.36
2019-05-13T11:44:44.101Z,20.90
2019-05-13T11:45:44.086Z,21.39
2019-05-13T11:46:44.079Z,21.89
2019-05-13T11:47:44.067Z,22.20
2019-05-13T11:48:44.064Z,22.59
2019-05-13T11:49:44.046Z,22.94
2019-05-13T11:50:50.094Z,23.13
2019-05-13T11:51:45.035Z,23.25
2019-05-13T11:52:44.381Z,23.46
2019-05-13T11:53:44.065Z,23.68
2019-05-13T11:54:43.996Z,23.77
2019-05-13T11:55:43.978Z,23.71
2019-05-13T11:56:49.460Z,23.84
2019-05-13T11:57:44.958Z,23.80
2019-05-13T11:58:43.943Z,23.95
2019-05-13T11:59:52.687Z,24.06
2019-05-13T12:01:25.597Z,24.06
2019-05-13T12:02:25.588Z,23.81
2019-05-13T12:04:07.724Z,23.40
2019-05-13T12:05:07.713Z,23.18
2019-05-13T12:06:07.695Z,22.33
2019-05-13T12:07:07.684Z,21.25
2019-05-13T12:08:07.666Z,20.50
2019-05-13T12:09:07.654Z,19.79
2019-05-13T12:10:07.650Z,19.39
2019-05-13T12:11:07.657Z,18.95
2019-05-13T12:12:07.623Z,18.75
2019-05-13T12:13:07.616Z,18.43
2019-05-13T12:14:07.608Z,18.20
2019-05-13T12:15:33.678Z,17.82
2019-05-13T12:16:08.579Z,17.63
2019-05-13T12:17:07.568Z,17.30
2019-05-13T12:18:07.593Z,17.22
2019-05-13T12:19:07.586Z,17.11
2019-05-13T12:20:07.535Z,17.20
2019-05-13T12:21:07.544Z,17.31
2019-05-13T12:22:07.598Z,17.38
2019-05-13T12:23:07.524Z,17.45
2019-05-13T12:24:11.089Z,17.72
2019-05-13T12:25:07.538Z,17.72
2019-05-13T12:26:07.519Z,17.68
2019-05-13T12:27:07.460Z,17.63
2019-05-13T12:28:07.452Z,17.49
2019-05-13T12:29:14.609Z,17.26
2019-05-13T12:30:08.424Z,17.12
2019-05-13T12:31:07.444Z,17.01
2019-05-13T12:32:07.399Z,16.83
2019-05-13T12:33:07.390Z,16.75
2019-05-13T12:34:07.388Z,16.69
2019-05-13T12:35:07.370Z,16.60
2019-05-13T12:36:07.366Z,16.56
2019-05-13T12:37:07.349Z,16.42
2019-05-13T12:38:07.340Z,16.41
2019-05-13T12:39:07.334Z,16.35
2019-05-13T12:40:07.361Z,16.33
2019-05-13T12:41:07.307Z,16.38
2019-05-13T12:42:07.302Z,16.47
2019-05-13T12:43:07.284Z,16.68
2019-05-13T12:44:07.281Z,16.75
2019-05-13T12:45:10.225Z,16.81
2019-05-13T12:46:08.248Z,16.81
2019-05-13T12:47:07.252Z,16.87
2019-05-13T12:48:07.234Z,16.93
2019-05-13T12:49:07.251Z,17.04
2019-05-13T12:50:07.204Z,17.11
2019-05-13T12:51:07.226Z,17.24
2019-05-13T12:52:07.214Z,17.27
2019-05-13T12:53:07.172Z,17.36
2019-05-13T12:54:07.161Z,17.42
2019-05-13T12:55:07.265Z,17.45
2019-05-13T12:56:07.175Z,17.56
2019-05-13T12:57:12.138Z,17.64
2019-05-13T12:58:08.116Z,17.76
2019-05-13T12:59:07.108Z,17.78
2019-05-13T13:00:07.096Z,17.79
2019-05-13T13:01:07.084Z,17.86
2019-05-13T13:02:07.076Z,17.70
2019-05-13T13:03:07.061Z,17.52
2019-05-13T13:04:07.053Z,17.38
2019-05-13T13:05:14.007Z,17.19
2019-05-13T13:06:27.001Z,17.11